createdAt,value
2023-06-11T00:01:29.849Z,99348.47
2023-06-11T00:03:16.964Z,99339.88
2023-06-11T00:04:52.863Z,99349.78
2023-06-11T00:06:26.479Z,99345.56
2023-06-11T00:08:01.865Z,99342.34
2023-06-11T00:09:35.827Z,99347.72
2023-06-11T00:11:09.672Z,99343.47
2023-06-11T00:12:43.304Z,99340.94
2023-06-11T00:14:19.009Z,99342.94
2023-06-11T00:15:53.518Z,99350.69
2023-06-11T00:17:29.199Z,99348.84
2023-06-11T00:19:06.538Z,99349.16
2023-06-11T00:20:43.153Z,99348.16
2023-06-11T00:22:16.871Z,99352.38
2023-06-11T00:23:50.230Z,99349.00
2023-06-11T00:25:23.501Z,99353.38
2023-06-11T00:27:00.379Z,99350.56
2023-06-11T00:28:34.712Z,99349.41
2023-06-11T00:30:09.648Z,99348.25
2023-06-11T00:31:55.395Z,99343.88
2023-06-11T00:33:29.626Z,99356.13
2023-06-11T00:35:06.039Z,99344.41
2023-06-11T00:36:42.321Z,99351.16
2023-06-11T00:38:20.698Z,99353.56
2023-06-11T00:39:54.767Z,99347.19
2023-06-11T00:41:30.317Z,99348.53
2023-06-11T00:43:03.854Z,99341.47
2023-06-11T00:44:40.009Z,99352.22
2023-06-11T00:46:22.138Z,99349.38
2023-06-11T00:47:55.703Z,99348.03
2023-06-11T00:49:31.268Z,99351.56
2023-06-11T00:51:04.715Z,99349.88
2023-06-11T00:52:37.898Z,99345.50
2023-06-11T00:54:12.911Z,99352.56
2023-06-11T00:55:47.233Z,99349.72
2023-06-11T00:57:21.048Z,99343.66
2023-06-11T00:58:54.252Z,99344.16
2023-06-11T01:00:28.462Z,99346.69
2023-06-11T01:02:25.601Z,99354.63
2023-06-11T01:04:23.359Z,99361.97
2023-06-11T01:06:16.888Z,99356.78
2023-06-11T01:07:53.377Z,99354.91
2023-06-11T01:09:32.087Z,99358.94
2023-06-11T01:11:23.821Z,99354.53
2023-06-11T01:13:01.213Z,99360.91
2023-06-11T01:14:39.819Z,99362.47
2023-06-11T01:16:25.843Z,99365.84
2023-06-11T01:18:11.980Z,99362.97
2023-06-11T01:20:10.866Z,99358.63
2023-06-11T01:21:55.199Z,99359.28
2023-06-11T01:24:23.245Z,99362.31
2023-06-11T01:26:38.333Z,99365.84
2023-06-11T01:28:18.438Z,99362.16
2023-06-11T01:29:56.688Z,99362.97
2023-06-11T01:31:39.503Z,99364.84
2023-06-11T01:33:18.821Z,99357.09
2023-06-11T01:35:23.774Z,99356.59
2023-06-11T01:37:03.863Z,99361.13
2023-06-11T01:38:40.669Z,99367.34
2023-06-11T01:40:16.422Z,99364.66
2023-06-11T01:41:52.138Z,99364.66
2023-06-11T01:43:43.848Z,99362.97
2023-06-11T01:45:20.184Z,99364.66
2023-06-11T01:46:53.641Z,99367.19
2023-06-11T01:48:27.034Z,99369.75
2023-06-11T01:50:03.061Z,99365.38
2023-06-11T01:51:36.437Z,99360.84
2023-06-11T01:53:12.630Z,99360.84
2023-06-11T01:54:47.461Z,99360.00
2023-06-11T01:56:20.932Z,99359.13
2023-06-11T01:57:54.159Z,99361.13
2023-06-11T01:59:27.622Z,99352.41
2023-06-11T02:01:03.853Z,99359.78
2023-06-11T02:02:46.106Z,99364.31
2023-06-11T02:04:26.805Z,99352.84
2023-06-11T02:06:02.163Z,99366.28
2023-06-11T02:07:50.731Z,99364.91
2023-06-11T02:09:28.317Z,99363.22
2023-06-11T02:11:18.809Z,99364.38
2023-06-11T02:12:52.226Z,99359.16
2023-06-11T02:14:27.134Z,99355.63
2023-06-11T02:16:02.375Z,99354.78
2023-06-11T02:17:36.217Z,99356.13
2023-06-11T02:19:09.650Z,99362.16
2023-06-11T02:20:49.184Z,99364.13
2023-06-11T02:22:25.234Z,99366.53
2023-06-11T02:24:04.842Z,99360.31
2023-06-11T02:25:41.586Z,99366.53
2023-06-11T02:27:14.719Z,99373.44
2023-06-11T02:28:48.360Z,99365.91
2023-06-11T02:30:25.337Z,99367.28
2023-06-11T02:32:00.867Z,99367.97
2023-06-11T02:33:34.025Z,99372.38
2023-06-11T02:35:09.053Z,99372.38
2023-06-11T02:36:42.424Z,99363.59
2023-06-11T02:38:15.886Z,99376.75
2023-06-11T02:39:49.893Z,99368.97
2023-06-11T02:41:24.409Z,99362.75
2023-06-11T02:42:57.793Z,99370.81
2023-06-11T02:44:34.685Z,99372.38
2023-06-11T02:46:08.062Z,99374.06
2023-06-11T02:47:42.632Z,99376.75
2023-06-11T02:49:35.541Z,99377.75
2023-06-11T02:51:08.892Z,99371.66
2023-06-11T02:52:42.028Z,99376.03
2023-06-11T02:54:18.611Z,99377.88
2023-06-11T02:55:52.444Z,99380.44
2023-06-11T02:57:25.958Z,99382.28
2023-06-11T02:59:13.997Z,99383.81
2023-06-11T03:00:57.848Z,99384.81
2023-06-11T03:02:31.307Z,99381.13
2023-06-11T03:04:07.480Z,99382.66
2023-06-11T03:05:41.216Z,99385.50
2023-06-11T03:07:16.868Z,99391.72
2023-06-11T03:08:50.520Z,99377.59
2023-06-11T03:10:23.683Z,99382.81
2023-06-11T03:11:56.778Z,99386.34
2023-06-11T03:13:32.663Z,99394.41
2023-06-11T03:15:10.191Z,99385.19
2023-06-11T03:16:45.263Z,99386.03
2023-06-11T03:18:20.211Z,99379.78
2023-06-11T03:19:54.862Z,99381.50
2023-06-11T03:21:32.036Z,99384.88
2023-06-11T03:23:08.075Z,99380.22
2023-06-11T03:24:42.869Z,99383.88
2023-06-11T03:26:22.996Z,99385.88
2023-06-11T03:27:56.872Z,99383.31
2023-06-11T03:29:35.631Z,99387.72
2023-06-11T03:31:10.595Z,99387.56
2023-06-11T03:32:48.041Z,99380.34
2023-06-11T03:34:24.176Z,99383.75
2023-06-11T03:36:11.950Z,99390.53
2023-06-11T03:37:49.143Z,99385.31
2023-06-11T03:39:25.096Z,99384.31
2023-06-11T03:41:02.908Z,99383.47
2023-06-11T03:42:38.843Z,99388.69
2023-06-11T03:44:16.627Z,99393.06
2023-06-11T03:45:55.927Z,99396.44
2023-06-11T03:47:30.475Z,99393.06
2023-06-11T03:49:09.315Z,99396.59
2023-06-11T03:50:47.216Z,99390.88
2023-06-11T03:52:27.058Z,99402.19
2023-06-11T03:54:03.763Z,99394.13
2023-06-11T03:55:37.578Z,99396.81
2023-06-11T03:57:13.728Z,99398.34
2023-06-11T03:58:51.703Z,99401.03
2023-06-11T04:00:25.175Z,99407.13
2023-06-11T04:02:02.512Z,99404.94
2023-06-11T04:03:40.620Z,99411.72
2023-06-11T04:05:16.943Z,99410.25
2023-06-11T04:06:50.356Z,99405.88
2023-06-11T04:08:23.636Z,99406.56
2023-06-11T04:09:57.094Z,99408.38
2023-06-11T04:11:33.673Z,99412.63
2023-06-11T04:13:06.786Z,99411.78
2023-06-11T04:14:45.136Z,99408.25
2023-06-11T04:16:19.742Z,99413.47
2023-06-11T04:17:57.920Z,99418.19
2023-06-11T04:19:33.659Z,99406.56
2023-06-11T04:21:12.393Z,99410.09
2023-06-11T04:22:49.347Z,99426.09
2023-06-11T04:24:23.977Z,99418.31
2023-06-11T04:25:57.153Z,99420.16
2023-06-11T04:27:32.767Z,99419.88
2023-06-11T04:29:06.953Z,99414.66
2023-06-11T04:30:40.921Z,99427.09
2023-06-11T04:32:14.126Z,99423.56
2023-06-11T04:33:47.404Z,99418.00
2023-06-11T04:35:24.299Z,99420.94
2023-06-11T04:37:00.460Z,99424.75
2023-06-11T04:38:43.122Z,99424.63
2023-06-11T04:40:20.231Z,99433.53
2023-06-11T04:41:55.869Z,99426.59
2023-06-11T04:43:28.978Z,99428.44
2023-06-11T04:45:02.548Z,99430.91
2023-06-11T04:46:36.049Z,99430.91
2023-06-11T04:48:10.878Z,99428.38
2023-06-11T04:49:48.953Z,99435.78
2023-06-11T04:51:22.402Z,99436.06
2023-06-11T04:53:11.962Z,99434.25
2023-06-11T04:54:54.755Z,99435.09
2023-06-11T04:56:32.125Z,99440.31
2023-06-11T04:58:08.317Z,99444.69
2023-06-11T04:59:43.970Z,99439.63
2023-06-11T05:01:19.443Z,99446.69
2023-06-11T05:02:53.015Z,99445.84
2023-06-11T05:04:28.393Z,99438.63
2023-06-11T05:06:01.875Z,99438.75
2023-06-11T05:07:38.936Z,99451.06
2023-06-11T05:09:15.241Z,99436.94
2023-06-11T05:10:50.389Z,99442.00
2023-06-11T05:12:25.923Z,99443.69
2023-06-11T05:13:59.871Z,99439.81
2023-06-11T05:15:33.391Z,99440.38
2023-06-11T05:17:10.775Z,99441.75
2023-06-11T05:18:44.043Z,99442.97
2023-06-11T05:20:24.790Z,99439.38
2023-06-11T05:22:03.925Z,99444.66
2023-06-11T05:23:40.766Z,99445.72
2023-06-11T05:25:18.399Z,99444.38
2023-06-11T05:27:00.016Z,99436.31
2023-06-11T05:28:33.624Z,99442.53
2023-06-11T05:30:10.451Z,99443.41
2023-06-11T05:31:47.297Z,99445.78
2023-06-11T05:33:22.086Z,99443.06
2023-06-11T05:34:59.614Z,99449.75
2023-06-11T05:36:33.980Z,99450.78
2023-06-11T05:38:10.287Z,99450.78
2023-06-11T05:39:43.566Z,99447.84
2023-06-11T05:41:16.713Z,99451.78
2023-06-11T05:42:52.767Z,99448.78
2023-06-11T05:44:30.108Z,99443.06
2023-06-11T05:46:06.456Z,99444.09
2023-06-11T05:47:43.416Z,99454.22
2023-06-11T05:49:21.006Z,99461.97
2023-06-11T05:50:57.659Z,99461.69
2023-06-11T05:52:33.998Z,99447.66
2023-06-11T05:54:11.418Z,99452.22
2023-06-11T05:55:46.880Z,99466.06
2023-06-11T05:57:25.913Z,99462.91
2023-06-11T05:59:02.901Z,99462.44
2023-06-11T06:00:36.250Z,99468.84
2023-06-11T06:02:11.949Z,99470.13
2023-06-11T06:03:49.564Z,99482.75
2023-06-11T06:05:27.711Z,99481.38
2023-06-11T06:07:04.380Z,99481.38
2023-06-11T06:08:38.914Z,99484.34
2023-06-11T06:10:15.160Z,99488.97
2023-06-11T06:11:48.479Z,99488.53
2023-06-11T06:13:22.952Z,99484.59
2023-06-11T06:14:56.681Z,99494.28
2023-06-11T06:16:36.355Z,99489.69
2023-06-11T06:18:09.743Z,99486.75
2023-06-11T06:19:45.160Z,99486.75
2023-06-11T06:21:21.929Z,99490.31
2023-06-11T06:22:56.087Z,99489.63
2023-06-11T06:24:33.245Z,99489.16
2023-06-11T06:26:09.992Z,99492.38
2023-06-11T06:27:43.400Z,99493.91
2023-06-11T06:29:16.612Z,99503.38
2023-06-11T06:31:03.458Z,99503.88
2023-06-11T06:32:38.118Z,99498.06
2023-06-11T06:34:12.766Z,99500.97
2023-06-11T06:35:46.501Z,99496.28
2023-06-11T06:37:20.256Z,99501.16
2023-06-11T06:38:56.379Z,99490.00
2023-06-11T06:40:29.945Z,99495.38
2023-06-11T06:42:17.193Z,99494.69
2023-06-11T06:43:53.969Z,99503.63
2023-06-11T06:45:31.102Z,99503.00
2023-06-11T06:47:04.845Z,99498.66
2023-06-11T06:48:42.613Z,99505.25
2023-06-11T06:50:18.036Z,99500.25
2023-06-11T06:51:52.193Z,99499.94
2023-06-11T06:53:34.989Z,99506.16
2023-06-11T06:55:09.719Z,99502.25
2023-06-11T06:56:44.516Z,99501.91
2023-06-11T06:58:21.860Z,99504.50
2023-06-11T07:00:01.123Z,99502.69
2023-06-11T07:01:37.927Z,99490.09
2023-06-11T07:03:13.460Z,99501.25
2023-06-11T07:04:50.323Z,99495.06
2023-06-11T07:06:28.911Z,99499.44
2023-06-11T07:08:10.847Z,99496.78
2023-06-11T07:09:44.351Z,99498.38
2023-06-11T07:11:17.715Z,99499.69
2023-06-11T07:12:57.188Z,99496.69
2023-06-11T07:14:32.947Z,99498.91
2023-06-11T07:16:12.549Z,99514.63
2023-06-11T07:17:45.952Z,99509.06
2023-06-11T07:19:24.976Z,99506.88
2023-06-11T07:20:58.273Z,99501.66
2023-06-11T07:22:36.687Z,99506.03
2023-06-11T07:24:09.939Z,99505.50
2023-06-11T07:25:43.302Z,99504.81
2023-06-11T07:27:17.988Z,99500.22
2023-06-11T07:28:51.290Z,99496.28
2023-06-11T07:30:29.081Z,99502.00
2023-06-11T07:32:04.890Z,99510.66
2023-06-11T07:33:41.332Z,99504.69
2023-06-11T07:35:17.783Z,99501.53
2023-06-11T07:36:50.960Z,99507.91
2023-06-11T07:38:25.830Z,99496.38
2023-06-11T07:39:59.235Z,99500.22
2023-06-11T07:41:37.466Z,99503.44
2023-06-11T07:43:13.117Z,99505.44
2023-06-11T07:44:50.490Z,99502.41
2023-06-11T07:46:31.248Z,99502.16
2023-06-11T07:48:05.471Z,99502.41
2023-06-11T07:49:39.672Z,99510.09
2023-06-11T07:51:20.033Z,99502.34
2023-06-11T07:52:54.728Z,99498.72
2023-06-11T07:54:31.335Z,99505.34
2023-06-11T07:56:05.690Z,99508.53
2023-06-11T07:57:38.933Z,99507.31
2023-06-11T07:59:14.948Z,99498.41
2023-06-11T08:00:48.890Z,99495.41
2023-06-11T08:02:22.544Z,99497.47
2023-06-11T08:03:56.328Z,99503.16
2023-06-11T08:05:30.005Z,99490.88
2023-06-11T08:07:05.080Z,99502.66
2023-06-11T08:08:41.736Z,99497.22
2023-06-11T08:10:16.019Z,99500.84
2023-06-11T08:11:51.395Z,99508.22
2023-06-11T08:13:26.286Z,99495.91
2023-06-11T08:15:01.260Z,99499.00
2023-06-11T08:16:36.063Z,99501.66
2023-06-11T08:18:12.347Z,99506.75
2023-06-11T08:19:47.677Z,99509.84
2023-06-11T08:21:21.018Z,99511.13
2023-06-11T08:22:57.538Z,99501.31
2023-06-11T08:24:37.123Z,99510.16
2023-06-11T08:26:12.247Z,99510.97
2023-06-11T08:27:52.696Z,99504.38
2023-06-11T08:29:27.674Z,99511.34
2023-06-11T08:31:05.263Z,99513.13
2023-06-11T08:32:38.900Z,99509.75
2023-06-11T08:34:17.125Z,99497.72
2023-06-11T08:35:51.865Z,99509.41
2023-06-11T08:37:25.762Z,99515.88
2023-06-11T08:39:02.025Z,99509.47
2023-06-11T08:40:44.706Z,99521.06
2023-06-11T08:42:25.328Z,99509.19
2023-06-11T08:44:02.438Z,99504.59
2023-06-11T08:45:35.840Z,99509.56
2023-06-11T08:47:17.798Z,99514.44
2023-06-11T08:49:01.970Z,99513.78
2023-06-11T08:50:40.058Z,99517.06
2023-06-11T08:52:18.456Z,99502.56
2023-06-11T08:53:52.740Z,99499.94
2023-06-11T08:55:28.990Z,99511.81
2023-06-11T08:57:09.971Z,99496.69
2023-06-11T08:58:45.297Z,99500.97
2023-06-11T09:00:20.651Z,99495.78
2023-06-11T09:01:54.165Z,99489.28
2023-06-11T09:03:36.318Z,99496.09
2023-06-11T09:05:12.651Z,99490.75
2023-06-11T09:06:58.434Z,99496.84
2023-06-11T09:08:36.789Z,99493.31
2023-06-11T09:10:12.308Z,99494.16
2023-06-11T09:11:50.195Z,99500.69
2023-06-11T09:13:32.164Z,99495.38
2023-06-11T09:15:09.512Z,99505.16
2023-06-11T09:16:51.378Z,99500.03
2023-06-11T09:18:27.457Z,99497.69
2023-06-11T09:20:09.485Z,99495.81
2023-06-11T09:21:57.927Z,99488.59
2023-06-11T09:23:40.437Z,99482.59
2023-06-11T09:25:17.832Z,99490.06
2023-06-11T09:26:56.913Z,99489.56
2023-06-11T09:28:42.197Z,99489.72
2023-06-11T09:30:20.971Z,99491.09
2023-06-11T09:32:31.603Z,99486.13
2023-06-11T09:34:04.660Z,99485.69
2023-06-11T09:35:44.805Z,99480.44
2023-06-11T09:37:18.056Z,99474.25
2023-06-11T09:38:51.293Z,99478.41
2023-06-11T09:40:25.744Z,99490.09
2023-06-11T09:42:02.247Z,99491.25
2023-06-11T09:43:38.979Z,99487.41
2023-06-11T09:45:14.883Z,99486.66
2023-06-11T09:46:50.364Z,99487.47
2023-06-11T09:48:31.291Z,99479.91
2023-06-11T09:50:08.046Z,99490.13
2023-06-11T09:51:54.709Z,99481.78
2023-06-11T09:53:32.537Z,99482.06
2023-06-11T09:55:15.168Z,99482.50
2023-06-11T09:56:49.137Z,99484.75
2023-06-11T09:58:24.813Z,99478.94
2023-06-11T09:59:58.174Z,99486.16
2023-06-11T10:01:33.865Z,99492.25
2023-06-11T10:03:14.103Z,99493.72
2023-06-11T10:04:50.028Z,99485.69
2023-06-11T10:06:37.385Z,99495.28
2023-06-11T10:08:34.416Z,99485.59
2023-06-11T10:10:12.773Z,99486.84
2023-06-11T10:11:48.721Z,99488.44
2023-06-11T10:13:34.633Z,99499.72
2023-06-11T10:15:17.345Z,99479.38
2023-06-11T10:16:53.063Z,99483.38
2023-06-11T10:18:28.110Z,99481.97
2023-06-11T10:20:17.162Z,99490.22
2023-06-11T10:21:52.087Z,99498.53
2023-06-11T10:23:42.116Z,99500.88
2023-06-11T10:25:24.508Z,99493.13
2023-06-11T10:27:14.852Z,99509.66
2023-06-11T10:28:50.135Z,99500.66
2023-06-11T10:30:24.515Z,99487.09
2023-06-11T10:31:58.143Z,99503.38
2023-06-11T10:33:47.686Z,99496.75
2023-06-11T10:35:25.593Z,99491.97
2023-06-11T10:37:05.180Z,99497.50
2023-06-11T10:38:38.975Z,99509.69
2023-06-11T10:40:15.959Z,99492.00
2023-06-11T10:42:01.874Z,99501.06
2023-06-11T10:43:37.885Z,99492.44
2023-06-11T10:45:14.340Z,99494.06
2023-06-11T10:46:53.898Z,99503.78
2023-06-11T10:48:32.133Z,99490.13
2023-06-11T10:50:09.410Z,99497.78
2023-06-11T10:51:43.560Z,99499.56
2023-06-11T10:53:16.920Z,99490.84
2023-06-11T10:54:53.055Z,99487.50
2023-06-11T10:56:27.459Z,99501.59
2023-06-11T10:58:05.151Z,99501.06
2023-06-11T10:59:38.976Z,99487.69
2023-06-11T11:01:12.664Z,99504.53
2023-06-11T11:02:46.989Z,99494.78
2023-06-11T11:04:22.581Z,99495.63
2023-06-11T11:05:56.069Z,99496.75
2023-06-11T11:07:30.377Z,99491.06
2023-06-11T11:09:04.406Z,99496.03
2023-06-11T11:10:37.645Z,99491.97
2023-06-11T11:12:12.420Z,99489.28
2023-06-11T11:13:50.204Z,99492.72
2023-06-11T11:15:23.901Z,99485.53
2023-06-11T11:16:59.044Z,99482.19
2023-06-11T11:18:32.388Z,99476.75
2023-06-11T11:20:10.394Z,99497.13
2023-06-11T11:21:52.051Z,99485.16
2023-06-11T11:23:25.628Z,99487.94
2023-06-11T11:25:04.563Z,99473.28
2023-06-11T11:26:44.716Z,99487.00
2023-06-11T11:28:18.979Z,99477.41
2023-06-11T11:29:53.714Z,99475.63
2023-06-11T11:31:28.097Z,99470.47
2023-06-11T11:33:04.230Z,99473.47
2023-06-11T11:34:41.555Z,99486.56
2023-06-11T11:36:15.295Z,99480.50
2023-06-11T11:37:53.076Z,99489.81
2023-06-11T11:39:28.572Z,99475.53
2023-06-11T11:41:01.941Z,99481.88
2023-06-11T11:42:53.447Z,99492.41
2023-06-11T11:44:27.118Z,99479.63
2023-06-11T11:46:00.709Z,99477.38
2023-06-11T11:47:37.666Z,99478.31
2023-06-11T11:49:11.514Z,99472.81
2023-06-11T11:50:47.079Z,99476.09
2023-06-11T11:52:24.629Z,99466.25
2023-06-11T11:54:01.489Z,99466.53
2023-06-11T11:55:48.433Z,99470.19
2023-06-11T11:57:34.308Z,99462.56
2023-06-11T11:59:21.789Z,99456.44
2023-06-11T12:00:57.282Z,99468.69
2023-06-11T12:02:30.853Z,99467.38
2023-06-11T12:04:05.050Z,99469.25
2023-06-11T12:05:40.015Z,99466.19
2023-06-11T12:07:17.593Z,99466.28
2023-06-11T12:08:51.062Z,99466.94
2023-06-11T12:10:24.304Z,99460.50
2023-06-11T12:12:05.191Z,99455.34
2023-06-11T12:13:39.356Z,99447.34
2023-06-11T12:15:12.541Z,99440.50
2023-06-11T12:16:50.071Z,99448.66
2023-06-11T12:18:23.913Z,99450.97
2023-06-11T12:19:58.476Z,99448.25
2023-06-11T12:21:32.061Z,99457.63
2023-06-11T12:23:06.012Z,99452.22
2023-06-11T12:24:39.334Z,99451.81
2023-06-11T12:26:12.775Z,99446.03
2023-06-11T12:27:46.288Z,99442.06
2023-06-11T12:29:20.066Z,99447.31
2023-06-11T12:30:54.859Z,99452.16
2023-06-11T12:32:31.474Z,99449.94
2023-06-11T12:34:07.347Z,99447.78
2023-06-11T12:35:40.659Z,99448.41
2023-06-11T12:37:18.477Z,99438.66
2023-06-11T12:38:52.114Z,99442.09
2023-06-11T12:40:26.001Z,99447.72
2023-06-11T12:42:00.018Z,99452.88
2023-06-11T12:43:33.572Z,99453.22
2023-06-11T12:45:10.331Z,99452.72
2023-06-11T12:46:43.896Z,99460.16
2023-06-11T12:48:17.558Z,99457.09
2023-06-11T12:49:51.017Z,99462.06
2023-06-11T12:51:28.399Z,99448.69
2023-06-11T12:53:01.716Z,99448.28
2023-06-11T12:54:35.272Z,99440.03
2023-06-11T12:56:08.524Z,99433.84
2023-06-11T12:57:42.676Z,99434.78
2023-06-11T12:59:16.163Z,99433.81
2023-06-11T13:00:49.964Z,99436.78
2023-06-11T13:02:23.427Z,99437.44
2023-06-11T13:03:57.534Z,99432.00
2023-06-11T13:05:31.322Z,99434.47
2023-06-11T13:07:05.407Z,99443.31
2023-06-11T13:08:39.421Z,99441.06
2023-06-11T13:10:12.893Z,99433.13
2023-06-11T13:11:51.880Z,99431.25
2023-06-11T13:13:25.384Z,99445.22
2023-06-11T13:14:59.275Z,99438.19
2023-06-11T13:16:32.781Z,99439.13
2023-06-11T13:18:06.224Z,99435.44
2023-06-11T13:19:39.439Z,99424.38
2023-06-11T13:21:13.285Z,99437.34
2023-06-11T13:22:49.499Z,99434.28
2023-06-11T13:24:22.698Z,99428.13
2023-06-11T13:25:59.953Z,99434.41
2023-06-11T13:27:33.323Z,99429.81
2023-06-11T13:29:06.889Z,99432.97
2023-06-11T13:30:45.478Z,99428.97
2023-06-11T13:32:18.931Z,99428.91
2023-06-11T13:33:52.507Z,99434.06
2023-06-11T13:35:26.351Z,99424.03
2023-06-11T13:37:00.450Z,99426.75
2023-06-11T13:38:35.007Z,99430.56
2023-06-11T13:40:11.724Z,99417.91
2023-06-11T13:41:46.480Z,99409.78
2023-06-11T13:43:23.962Z,99431.88
2023-06-11T13:44:57.347Z,99431.88
2023-06-11T13:46:32.108Z,99426.91
2023-06-11T13:48:14.401Z,99429.69
2023-06-11T13:49:47.990Z,99435.56
2023-06-11T13:51:21.644Z,99427.69
2023-06-11T13:52:54.894Z,99430.81
2023-06-11T13:54:28.645Z,99421.63
2023-06-11T13:56:01.896Z,99423.09
2023-06-11T13:57:35.861Z,99426.72
2023-06-11T13:59:09.036Z,99416.50
2023-06-11T14:00:43.872Z,99415.75
2023-06-11T14:02:17.722Z,99412.66
2023-06-11T14:03:51.319Z,99412.66
2023-06-11T14:05:27.370Z,99413.09
2023-06-11T14:07:01.761Z,99415.63
2023-06-11T14:08:36.486Z,99414.41
2023-06-11T14:10:11.236Z,99416.50
2023-06-11T14:11:44.957Z,99413.63
2023-06-11T14:13:18.285Z,99412.91
2023-06-11T14:14:54.196Z,99415.19
2023-06-11T14:16:30.210Z,99418.63
2023-06-11T14:18:03.880Z,99420.91
2023-06-11T14:19:37.092Z,99412.31
2023-06-11T14:21:10.928Z,99409.78
2023-06-11T14:22:47.394Z,99404.16
2023-06-11T14:24:24.396Z,99403.94
2023-06-11T14:25:58.508Z,99399.97
2023-06-11T14:27:33.242Z,99391.81
2023-06-11T14:29:06.593Z,99414.59
2023-06-11T14:30:41.139Z,99415.78
2023-06-11T14:32:15.428Z,99405.91
2023-06-11T14:33:48.682Z,99416.97
2023-06-11T14:35:25.342Z,99416.13
2023-06-11T14:36:58.572Z,99416.81
2023-06-11T14:38:33.901Z,99414.44
2023-06-11T14:40:08.417Z,99410.19
2023-06-11T14:41:42.481Z,99411.06
2023-06-11T14:43:19.282Z,99422.63
2023-06-11T14:44:52.566Z,99419.06
2023-06-11T14:46:26.868Z,99418.38
2023-06-11T14:48:00.994Z,99416.06
2023-06-11T14:49:34.393Z,99423.13
2023-06-11T14:51:10.791Z,99424.72
2023-06-11T14:52:44.771Z,99420.06
2023-06-11T14:54:19.535Z,99422.44
2023-06-11T14:55:53.056Z,99415.72
2023-06-11T14:57:26.797Z,99411.09
2023-06-11T14:59:00.720Z,99415.22
2023-06-11T15:00:34.363Z,99419.66
2023-06-11T15:02:08.179Z,99416.81
2023-06-11T15:03:41.625Z,99417.53
2023-06-11T15:05:14.874Z,99407.59
2023-06-11T15:06:48.056Z,99404.75
2023-06-11T15:08:21.669Z,99417.75
2023-06-11T15:09:55.165Z,99410.06
2023-06-11T15:11:31.660Z,99414.25
2023-06-11T15:13:14.462Z,99407.59
2023-06-11T15:14:50.927Z,99391.94
2023-06-11T15:16:24.893Z,99407.38
2023-06-11T15:17:58.574Z,99416.41
2023-06-11T15:19:35.108Z,99405.28
2023-06-11T15:21:08.905Z,99403.97
2023-06-11T15:22:42.302Z,99403.13
2023-06-11T15:24:15.639Z,99410.91
2023-06-11T15:25:53.093Z,99413.63
2023-06-11T15:27:26.771Z,99412.19
2023-06-11T15:29:07.600Z,99415.34
2023-06-11T15:30:45.640Z,99412.63
2023-06-11T15:32:19.081Z,99409.03
2023-06-11T15:33:52.746Z,99414.53
2023-06-11T15:35:26.327Z,99412.31
2023-06-11T15:36:59.770Z,99418.06
2023-06-11T15:38:36.687Z,99424.00
2023-06-11T15:40:11.147Z,99427.59
2023-06-11T15:41:45.141Z,99417.81
2023-06-11T15:43:18.421Z,99433.06
2023-06-11T15:44:51.968Z,99433.72
2023-06-11T15:46:26.363Z,99433.81
2023-06-11T15:48:02.708Z,99433.56
2023-06-11T15:49:36.097Z,99430.84
2023-06-11T15:51:09.454Z,99428.59
2023-06-11T15:52:42.805Z,99429.91
2023-06-11T15:54:16.155Z,99435.78
2023-06-11T15:55:49.450Z,99432.22
2023-06-11T15:57:22.866Z,99423.91
2023-06-11T15:58:56.053Z,99434.38
2023-06-11T16:00:29.870Z,99433.72
2023-06-11T16:02:09.953Z,99427.53
2023-06-11T16:03:47.265Z,99424.56
2023-06-11T16:05:21.626Z,99427.44
2023-06-11T16:06:56.088Z,99432.03
2023-06-11T16:08:34.009Z,99420.34
2023-06-11T16:10:08.669Z,99438.13
2023-06-11T16:11:43.747Z,99433.34
2023-06-11T16:13:17.866Z,99435.03
2023-06-11T16:14:51.590Z,99432.72
2023-06-11T16:16:26.074Z,99431.84
2023-06-11T16:18:04.000Z,99430.63
2023-06-11T16:19:38.516Z,99431.47
2023-06-11T16:21:11.890Z,99438.59
2023-06-11T16:22:45.912Z,99436.06
2023-06-11T16:24:20.841Z,99430.06
2023-06-11T16:25:55.406Z,99437.25
2023-06-11T16:27:29.554Z,99435.13
2023-06-11T16:29:04.956Z,99428.88
2023-06-11T16:30:41.226Z,99435.34
2023-06-11T16:32:15.138Z,99441.78
2023-06-11T16:33:57.221Z,99437.75
2023-06-11T16:35:32.513Z,99438.31
2023-06-11T16:37:06.658Z,99426.19
2023-06-11T16:38:39.861Z,99441.75
2023-06-11T16:40:13.241Z,99442.25
2023-06-11T16:41:46.518Z,99442.91
2023-06-11T16:43:20.838Z,99444.75
2023-06-11T16:44:54.386Z,99443.09
2023-06-11T16:46:28.569Z,99449.84
2023-06-11T16:48:01.986Z,99443.94
2023-06-11T16:49:35.511Z,99452.59
2023-06-11T16:51:11.936Z,99448.50
2023-06-11T16:52:45.165Z,99457.28
2023-06-11T16:54:20.858Z,99451.66
2023-06-11T16:55:55.141Z,99450.94
2023-06-11T16:57:30.468Z,99455.91
2023-06-11T16:59:07.360Z,99456.84
2023-06-11T17:00:41.009Z,99460.00
2023-06-11T17:02:15.263Z,99456.25
2023-06-11T17:03:49.175Z,99456.00
2023-06-11T17:05:29.361Z,99456.75
2023-06-11T17:07:02.605Z,99451.75
2023-06-11T17:08:36.623Z,99454.56
2023-06-11T17:10:13.635Z,99454.13
2023-06-11T17:11:47.518Z,99465.16
2023-06-11T17:13:21.303Z,99464.47
2023-06-11T17:14:57.588Z,99463.72
2023-06-11T17:16:31.366Z,99478.69
2023-06-11T17:18:11.878Z,99476.56
2023-06-11T17:19:46.260Z,99475.13
2023-06-11T17:21:20.333Z,99478.41
2023-06-11T17:22:53.822Z,99475.75
2023-06-11T17:24:33.502Z,99485.66
2023-06-11T17:26:17.757Z,99482.75
2023-06-11T17:27:53.883Z,99486.22
2023-06-11T17:29:31.890Z,99487.75
2023-06-11T17:31:08.689Z,99491.69
2023-06-11T17:32:48.364Z,99499.84
2023-06-11T17:34:27.276Z,99497.53
2023-06-11T17:36:00.728Z,99497.91
2023-06-11T17:37:35.670Z,99504.06
2023-06-11T17:39:09.502Z,99507.16
2023-06-11T17:40:43.493Z,99502.44
2023-06-11T17:42:20.135Z,99510.22
2023-06-11T17:43:54.033Z,99511.56
2023-06-11T17:45:29.586Z,99517.50
2023-06-11T17:47:03.409Z,99518.19
2023-06-11T17:48:39.907Z,99514.81
2023-06-11T17:50:15.568Z,99517.19
2023-06-11T17:51:53.972Z,99515.50
2023-06-11T17:53:34.114Z,99516.19
2023-06-11T17:55:12.841Z,99523.44
2023-06-11T17:56:51.400Z,99514.81
2023-06-11T17:58:29.433Z,99521.91
2023-06-11T18:00:04.065Z,99520.88
2023-06-11T18:01:37.370Z,99545.84
2023-06-11T18:03:11.219Z,99523.75
2023-06-11T18:04:44.709Z,99529.00
2023-06-11T18:06:19.170Z,99515.13
2023-06-11T18:07:52.386Z,99518.66
2023-06-11T18:09:28.674Z,99530.16
2023-06-11T18:11:02.154Z,99526.59
2023-06-11T18:12:35.901Z,99527.44
2023-06-11T18:14:09.546Z,99531.81
2023-06-11T18:15:43.269Z,99527.59
2023-06-11T18:17:19.575Z,99533.16
2023-06-11T18:18:53.392Z,99528.78
2023-06-11T18:20:27.240Z,99541.59
2023-06-11T18:22:00.749Z,99534.69
2023-06-11T18:23:37.369Z,99537.88
2023-06-11T18:25:14.161Z,99533.13
2023-06-11T18:26:47.449Z,99535.47
2023-06-11T18:28:25.600Z,99543.56
2023-06-11T18:30:03.444Z,99541.22
2023-06-11T18:31:38.457Z,99546.09
2023-06-11T18:33:11.866Z,99537.66
2023-06-11T18:34:47.402Z,99546.06
2023-06-11T18:36:21.573Z,99551.97
2023-06-11T18:37:55.161Z,99551.13
2023-06-11T18:39:28.753Z,99559.38
2023-06-11T18:41:02.814Z,99556.16
2023-06-11T18:42:39.498Z,99550.09
2023-06-11T18:44:12.620Z,99552.25
2023-06-11T18:45:46.244Z,99559.50
2023-06-11T18:47:20.065Z,99554.28
2023-06-11T18:48:56.118Z,99558.66
2023-06-11T18:50:30.165Z,99559.00
2023-06-11T18:52:03.591Z,99562.84
2023-06-11T18:53:36.716Z,99562.34